sensor_id;sensor_type;location;lat;lon;timestamp;pressure;altitude;pressure_sealevel;temperature;humidity
16664;BME280;8445;51.270;9.434;2023-04-26T00:00:24;99572.19;;;2.83;56.53
16664;BME280;8445;51.270;9.434;2023-04-26T00:02:50;99565.34;;;2.80;56.57
16664;BME280;8445;51.270;9.434;2023-04-26T00:05:15;99566.25;;;2.79;55.91
16664;BME280;8445;51.270;9.434;2023-04-26T00:07:41;99572.53;;;2.75;55.37
16664;BME280;8445;51.270;9.434;2023-04-26T00:10:08;99565.72;;;2.71;56.55
16664;BME280;8445;51.270;9.434;2023-04-26T00:12:35;99568.44;;;2.68;56.02
16664;BME280;8445;51.270;9.434;2023-04-26T00:15:01;99577.41;;;2.62;55.71
16664;BME280;8445;51.270;9.434;2023-04-26T00:17:27;99571.56;;;2.56;57.16
16664;BME280;8445;51.270;9.434;2023-04-26T00:19:52;99577.69;;;2.55;56.28
16664;BME280;8445;51.270;9.434;2023-04-26T00:22:18;99577.63;;;2.56;56.05
16664;BME280;8445;51.270;9.434;2023-04-26T00:24:43;99582.19;;;2.51;55.89
16664;BME280;8445;51.270;9.434;2023-04-26T00:27:09;99579.63;;;2.49;56.71
16664;BME280;8445;51.270;9.434;2023-04-26T00:29:37;99577.91;;;2.48;56.04
16664;BME280;8445;51.270;9.434;2023-04-26T00:32:03;99573.00;;;2.41;56.00
16664;BME280;8445;51.270;9.434;2023-04-26T00:34:35;99571.34;;;2.38;57.51
16664;BME280;8445;51.270;9.434;2023-04-26T00:37:02;99578.22;;;2.41;55.97
16664;BME280;8445;51.270;9.434;2023-04-26T00:39:27;99578.28;;;2.39;56.52
16664;BME280;8445;51.270;9.434;2023-04-26T00:41:53;99574.03;;;2.36;57.14
16664;BME280;8445;51.270;9.434;2023-04-26T00:44:19;99575.53;;;2.42;56.91
16664;BME280;8445;51.270;9.434;2023-04-26T00:46:46;99575.84;;;2.34;55.76
16664;BME280;8445;51.270;9.434;2023-04-26T00:49:15;99574.16;;;2.33;56.93
16664;BME280;8445;51.270;9.434;2023-04-26T00:51:44;99577.38;;;2.40;56.89
16664;BME280;8445;51.270;9.434;2023-04-26T00:54:11;99580.97;;;2.37;56.83
16664;BME280;8445;51.270;9.434;2023-04-26T00:56:37;99577.56;;;2.35;56.86
16664;BME280;8445;51.270;9.434;2023-04-26T00:59:03;99579.38;;;2.33;56.46
16664;BME280;8445;51.270;9.434;2023-04-26T01:01:29;99580.97;;;2.37;58.20
16664;BME280;8445;51.270;9.434;2023-04-26T01:03:55;99583.25;;;2.45;57.01
16664;BME280;8445;51.270;9.434;2023-04-26T01:06:21;99589.22;;;2.49;56.74
16664;BME280;8445;51.270;9.434;2023-04-26T01:08:48;99584.84;;;2.49;56.88
16664;BME280;8445;51.270;9.434;2023-04-26T01:11:17;99588.88;;;2.58;56.63
16664;BME280;8445;51.270;9.434;2023-04-26T01:13:45;99588.88;;;2.58;57.18
16664;BME280;8445;51.270;9.434;2023-04-26T01:16:12;99594.75;;;2.63;56.82
16664;BME280;8445;51.270;9.434;2023-04-26T01:18:39;99588.47;;;2.67;57.25
16664;BME280;8445;51.270;9.434;2023-04-26T01:21:05;99598.09;;;2.67;56.89
16664;BME280;8445;51.270;9.434;2023-04-26T01:23:31;99593.00;;;2.64;57.04
16664;BME280;8445;51.270;9.434;2023-04-26T01:25:57;99601.84;;;2.60;57.39
16664;BME280;8445;51.270;9.434;2023-04-26T01:28:22;99595.84;;;2.58;56.95
16664;BME280;8445;51.270;9.434;2023-04-26T01:30:49;99595.25;;;2.51;57.78
16664;BME280;8445;51.270;9.434;2023-04-26T01:33:14;99595.28;;;2.49;57.76
16664;BME280;8445;51.270;9.434;2023-04-26T01:35:40;99591.97;;;2.46;56.60
16664;BME280;8445;51.270;9.434;2023-04-26T01:38:06;99587.03;;;2.38;58.40
16664;BME280;8445;51.270;9.434;2023-04-26T01:40:32;99590.31;;;2.43;57.81
16664;BME280;8445;51.270;9.434;2023-04-26T01:42:57;99590.31;;;2.43;58.59
16664;BME280;8445;51.270;9.434;2023-04-26T01:45:23;99589.47;;;2.43;57.96
16664;BME280;8445;51.270;9.434;2023-04-26T01:48:07;99588.59;;;2.42;57.69
16664;BME280;8445;51.270;9.434;2023-04-26T01:50:33;99585.16;;;2.42;57.94
16664;BME280;8445;51.270;9.434;2023-04-26T01:52:58;99583.38;;;2.42;57.21
16664;BME280;8445;51.270;9.434;2023-04-26T01:55:23;99580.97;;;2.37;57.87
16664;BME280;8445;51.270;9.434;2023-04-26T01:57:49;99589.09;;;2.30;57.60
16664;BME280;8445;51.270;9.434;2023-04-26T02:00:14;99584.13;;;2.24;58.12
16664;BME280;8445;51.270;9.434;2023-04-26T02:02:40;99589.25;;;2.25;57.59
16664;BME280;8445;51.270;9.434;2023-04-26T02:05:08;99582.41;;;2.22;57.91
16664;BME280;8445;51.270;9.434;2023-04-26T02:07:33;99580.06;;;2.15;58.13
16664;BME280;8445;51.270;9.434;2023-04-26T02:09:59;99587.00;;;2.16;58.57
16664;BME280;8445;51.270;9.434;2023-04-26T02:12:24;99587.31;;;2.08;58.32
16664;BME280;8445;51.270;9.434;2023-04-26T02:14:49;99571.63;;;2.08;58.66
16664;BME280;8445;51.270;9.434;2023-04-26T02:17:16;99576.00;;;2.07;59.03
16664;BME280;8445;51.270;9.434;2023-04-26T02:19:41;99574.13;;;2.11;58.36
16664;BME280;8445;51.270;9.434;2023-04-26T02:22:07;99585.47;;;2.10;59.15
16664;BME280;8445;51.270;9.434;2023-04-26T02:24:33;99578.56;;;2.09;59.13
16664;BME280;8445;51.270;9.434;2023-04-26T02:26:58;99573.34;;;2.09;58.96
16664;BME280;8445;51.270;9.434;2023-04-26T02:29:27;99582.88;;;2.10;59.58
16664;BME280;8445;51.270;9.434;2023-04-26T02:31:53;99583.97;;;2.04;58.53
16664;BME280;8445;51.270;9.434;2023-04-26T02:34:18;99571.88;;;2.02;58.44
16664;BME280;8445;51.270;9.434;2023-04-26T02:36:44;99585.91;;;1.99;58.39
16664;BME280;8445;51.270;9.434;2023-04-26T02:39:10;99580.16;;;1.89;58.01
16664;BME280;8445;51.270;9.434;2023-04-26T02:41:36;99575.16;;;1.83;58.02
16664;BME280;8445;51.270;9.434;2023-04-26T02:44:02;99578.75;;;1.81;58.21
16664;BME280;8445;51.270;9.434;2023-04-26T02:46:27;99580.59;;;1.77;58.49
16664;BME280;8445;51.270;9.434;2023-04-26T02:48:52;99578.06;;;1.75;58.35
16664;BME280;8445;51.270;9.434;2023-04-26T02:51:18;99585.31;;;1.67;58.56
16664;BME280;8445;51.270;9.434;2023-04-26T02:53:43;99580.09;;;1.67;59.68
16664;BME280;8445;51.270;9.434;2023-04-26T02:56:10;99581.56;;;1.74;58.72
16664;BME280;8445;51.270;9.434;2023-04-26T02:58:35;99572.91;;;1.74;58.58
16664;BME280;8445;51.270;9.434;2023-04-26T03:01:01;99569.63;;;1.69;59.00
16664;BME280;8445;51.270;9.434;2023-04-26T03:03:28;99577.44;;;1.69;58.02
16664;BME280;8445;51.270;9.434;2023-04-26T03:05:55;99582.88;;;1.62;58.23
16664;BME280;8445;51.270;9.434;2023-04-26T03:08:20;99579.47;;;1.60;59.13
16664;BME280;8445;51.270;9.434;2023-04-26T03:10:46;99588.22;;;1.58;59.08
16664;BME280;8445;51.270;9.434;2023-04-26T03:13:11;99582.19;;;1.57;59.06
16664;BME280;8445;51.270;9.434;2023-04-26T03:15:37;99579.69;;;1.54;58.33
16664;BME280;8445;51.270;9.434;2023-04-26T03:18:03;99586.28;;;1.39;58.85
16664;BME280;8445;51.270;9.434;2023-04-26T03:20:28;99581.91;;;1.40;60.40
16664;BME280;8445;51.270;9.434;2023-04-26T03:22:54;99578.09;;;1.50;60.05
16664;BME280;8445;51.270;9.434;2023-04-26T03:25:20;99576.06;;;1.58;59.66
16664;BME280;8445;51.270;9.434;2023-04-26T03:27:45;99574.16;;;1.63;60.01
16664;BME280;8445;51.270;9.434;2023-04-26T03:30:11;99578.47;;;1.65;59.25
16664;BME280;8445;51.270;9.434;2023-04-26T03:32:38;99576.56;;;1.68;59.61
16664;BME280;8445;51.270;9.434;2023-04-26T03:35:04;99574.03;;;1.67;60.14
16664;BME280;8445;51.270;9.434;2023-04-26T03:37:30;99572.16;;;1.70;59.37
16664;BME280;8445;51.270;9.434;2023-04-26T03:40:01;99570.41;;;1.71;59.47
16664;BME280;8445;51.270;9.434;2023-04-26T03:42:27;99569.66;;;1.67;59.42
16664;BME280;8445;51.270;9.434;2023-04-26T03:44:53;99568.84;;;1.65;59.32
16664;BME280;8445;51.270;9.434;2023-04-26T03:47:18;99578.59;;;1.60;59.49
16664;BME280;8445;51.270;9.434;2023-04-26T03:49:44;99576.28;;;1.52;59.06
16664;BME280;8445;51.270;9.434;2023-04-26T03:52:09;99578.09;;;1.50;58.82
16664;BME280;8445;51.270;9.434;2023-04-26T03:54:35;99580.91;;;1.44;59.57
16664;BME280;8445;51.270;9.434;2023-04-26T03:57:01;99583.50;;;1.44;59.19
16664;BME280;8445;51.270;9.434;2023-04-26T03:59:26;99575.00;;;1.39;59.36
16664;BME280;8445;51.270;9.434;2023-04-26T04:01:52;99580.31;;;1.36;59.17
16664;BME280;8445;51.270;9.434;2023-04-26T04:04:17;99583.81;;;1.35;59.64
16664;BME280;8445;51.270;9.434;2023-04-26T04:06:43;99574.31;;;1.33;60.24
16664;BME280;8445;51.270;9.434;2023-04-26T04:09:10;99575.22;;;1.32;59.78
16664;BME280;8445;51.270;9.434;2023-04-26T04:11:36;99575.06;;;1.37;59.92
16664;BME280;8445;51.270;9.434;2023-04-26T04:14:01;99569.00;;;1.37;59.93
16664;BME280;8445;51.270;9.434;2023-04-26T04:16:27;99574.06;;;1.41;60.29
16664;BME280;8445;51.270;9.434;2023-04-26T04:18:52;99559.84;;;1.50;59.63
16664;BME280;8445;51.270;9.434;2023-04-26T04:21:18;99575.47;;;1.50;59.56
16664;BME280;8445;51.270;9.434;2023-04-26T04:23:43;99572.00;;;1.50;59.78
16664;BME280;8445;51.270;9.434;2023-04-26T04:26:10;99577.13;;;1.53;59.83
16664;BME280;8445;51.270;9.434;2023-04-26T04:28:40;99563.84;;;1.59;59.67
16664;BME280;8445;51.270;9.434;2023-04-26T04:31:06;99572.66;;;1.56;59.57
16664;BME280;8445;51.270;9.434;2023-04-26T04:33:35;99581.31;;;1.57;60.34
16664;BME280;8445;51.270;9.434;2023-04-26T04:36:00;99580.25;;;1.62;59.43
16664;BME280;8445;51.270;9.434;2023-04-26T04:38:26;99585.69;;;1.80;59.82
16664;BME280;8445;51.270;9.434;2023-04-26T04:40:53;99583.88;;;1.82;60.48
16664;BME280;8445;51.270;9.434;2023-04-26T04:43:19;99589.09;;;1.82;60.81
16664;BME280;8445;51.270;9.434;2023-04-26T04:45:46;99592.72;;;1.78;60.41
16664;BME280;8445;51.270;9.434;2023-04-26T04:48:13;99592.97;;;1.72;60.55
16664;BME280;8445;51.270;9.434;2023-04-26T04:50:39;99593.09;;;1.69;59.73
16664;BME280;8445;51.270;9.434;2023-04-26T04:53:06;99597.63;;;1.87;60.16
16664;BME280;8445;51.270;9.434;2023-04-26T04:55:34;99599.09;;;1.95;60.33
16664;BME280;8445;51.270;9.434;2023-04-26T04:58:02;99600.34;;;2.08;60.35
16664;BME280;8445;51.270;9.434;2023-04-26T05:00:30;99606.94;;;2.18;59.73
16664;BME280;8445;51.270;9.434;2023-04-26T05:03:06;99606.81;;;2.21;60.06
16664;BME280;8445;51.270;9.434;2023-04-26T05:05:34;99610.09;;;2.27;60.24
16664;BME280;8445;51.270;9.434;2023-04-26T05:07:59;99614.47;;;2.26;59.89
16664;BME280;8445;51.270;9.434;2023-04-26T05:10:25;99610.00;;;2.30;60.72
16664;BME280;8445;51.270;9.434;2023-04-26T05:12:51;99613.66;;;2.48;60.19
16664;BME280;8445;51.270;9.434;2023-04-26T05:15:17;99612.63;;;2.52;60.51
16664;BME280;8445;51.270;9.434;2023-04-26T05:17:42;99619.34;;;2.58;60.39
16664;BME280;8445;51.270;9.434;2023-04-26T05:20:14;99620.69;;;2.68;61.02
16664;BME280;8445;51.270;9.434;2023-04-26T05:22:40;99613.22;;;2.81;61.19
16664;BME280;8445;51.270;9.434;2023-04-26T05:25:06;99619.44;;;2.99;61.06
16664;BME280;8445;51.270;9.434;2023-04-26T05:27:35;99631.22;;;3.09;60.82
16664;BME280;8445;51.270;9.434;2023-04-26T05:30:31;99627.31;;;3.20;60.97
16664;BME280;8445;51.270;9.434;2023-04-26T05:33:11;99632.19;;;3.29;60.15
16664;BME280;8445;51.270;9.434;2023-04-26T05:35:59;99625.78;;;3.36;60.22
16664;BME280;8445;51.270;9.434;2023-04-26T05:38:26;99624.88;;;3.37;60.69
16664;BME280;8445;51.270;9.434;2023-04-26T05:40:51;99633.50;;;3.39;60.41
16664;BME280;8445;51.270;9.434;2023-04-26T05:43:17;99635.06;;;3.44;60.54
16664;BME280;8445;51.270;9.434;2023-04-26T05:45:52;99643.56;;;3.49;61.49
16664;BME280;8445;51.270;9.434;2023-04-26T05:48:22;99636.34;;;3.54;60.45
16664;BME280;8445;51.270;9.434;2023-04-26T05:50:49;99639.63;;;3.59;60.77
16664;BME280;8445;51.270;9.434;2023-04-26T05:53:16;99642.06;;;3.64;60.86
16664;BME280;8445;51.270;9.434;2023-04-26T05:55:42;99644.06;;;3.78;60.25
16664;BME280;8445;51.270;9.434;2023-04-26T05:58:08;99649.94;;;3.83;60.07
16664;BME280;8445;51.270;9.434;2023-04-26T06:00:34;99654.06;;;3.89;60.55
16664;BME280;8445;51.270;9.434;2023-04-26T06:03:00;99651.91;;;3.98;60.64
16664;BME280;8445;51.270;9.434;2023-04-26T06:05:25;99653.91;;;4.12;60.94
16664;BME280;8445;51.270;9.434;2023-04-26T06:07:52;99657.56;;;4.27;61.19
16664;BME280;8445;51.270;9.434;2023-04-26T06:10:18;99657.25;;;4.35;60.85
16664;BME280;8445;51.270;9.434;2023-04-26T06:12:43;99661.41;;;4.58;61.16
16664;BME280;8445;51.270;9.434;2023-04-26T06:15:10;99671.88;;;4.78;60.83
16664;BME280;8445;51.270;9.434;2023-04-26T06:17:37;99665.34;;;4.86;60.92
16664;BME280;8445;51.270;9.434;2023-04-26T06:20:03;99663.09;;;5.15;60.95
16664;BME280;8445;51.270;9.434;2023-04-26T06:22:32;99665.56;;;5.36;60.65
16664;BME280;8445;51.270;9.434;2023-04-26T06:24:57;99667.06;;;5.42;60.57
16664;BME280;8445;51.270;9.434;2023-04-26T06:27:25;99666.44;;;5.37;60.46
16664;BME280;8445;51.270;9.434;2023-04-26T06:29:50;99662.94;;;5.36;60.40
16664;BME280;8445;51.270;9.434;2023-04-26T06:32:17;99664.97;;;5.48;60.61
16664;BME280;8445;51.270;9.434;2023-04-26T06:34:43;99669.66;;;5.59;60.64
16664;BME280;8445;51.270;9.434;2023-04-26T06:37:10;99669.91;;;5.72;60.90
16664;BME280;8445;51.270;9.434;2023-04-26T06:39:38;99671.28;;;5.79;60.54
16664;BME280;8445;51.270;9.434;2023-04-26T06:42:05;99672.31;;;5.93;60.44
16664;BME280;8445;51.270;9.434;2023-04-26T06:44:47;99678.28;;;5.97;60.22
16664;BME280;8445;51.270;9.434;2023-04-26T06:47:15;99675.03;;;5.91;60.11
16664;BME280;8445;51.270;9.434;2023-04-26T06:49:40;99679.06;;;5.99;59.98
16664;BME280;8445;51.270;9.434;2023-04-26T06:52:06;99673.66;;;6.02;60.27
16664;BME280;8445;51.270;9.434;2023-04-26T06:54:32;99682.94;;;6.09;60.28
16664;BME280;8445;51.270;9.434;2023-04-26T06:56:58;99688.38;;;6.22;60.28
16664;BME280;8445;51.270;9.434;2023-04-26T06:59:23;99693.66;;;6.54;61.05
16664;BME280;8445;51.270;9.434;2023-04-26T07:01:48;99685.56;;;6.75;60.52
16664;BME280;8445;51.270;9.434;2023-04-26T07:04:14;99686.13;;;6.96;60.44
16664;BME280;8445;51.270;9.434;2023-04-26T07:06:42;99684.38;;;6.96;60.48
16664;BME280;8445;51.270;9.434;2023-04-26T07:09:07;99684.84;;;7.03;60.25
16664;BME280;8445;51.270;9.434;2023-04-26T07:11:33;99686.38;;;7.07;60.16
16664;BME280;8445;51.270;9.434;2023-04-26T07:13:58;99687.09;;;7.25;60.49
16664;BME280;8445;51.270;9.434;2023-04-26T07:16:25;99694.94;;;7.27;60.01
16664;BME280;8445;51.270;9.434;2023-04-26T07:18:50;99694.69;;;7.16;59.67
16664;BME280;8445;51.270;9.434;2023-04-26T07:21:17;99694.69;;;7.16;59.90
16664;BME280;8445;51.270;9.434;2023-04-26T07:23:45;99687.13;;;7.09;59.37
16664;BME280;8445;51.270;9.434;2023-04-26T07:26:11;99697.56;;;7.11;59.72
16664;BME280;8445;51.270;9.434;2023-04-26T07:28:36;99696.38;;;7.17;59.54
16664;BME280;8445;51.270;9.434;2023-04-26T07:31:02;99697.56;;;7.27;59.41
16664;BME280;8445;51.270;9.434;2023-04-26T07:33:27;99705.66;;;7.54;59.45
16664;BME280;8445;51.270;9.434;2023-04-26T07:35:57;99698.38;;;7.89;59.33
16664;BME280;8445;51.270;9.434;2023-04-26T07:38:24;99695.97;;;8.14;58.64
16664;BME280;8445;51.270;9.434;2023-04-26T07:40:50;99696.53;;;8.20;59.06
16664;BME280;8445;51.270;9.434;2023-04-26T07:43:17;99701.81;;;8.20;58.19
16664;BME280;8445;51.270;9.434;2023-04-26T07:45:43;99698.25;;;8.21;58.72
16664;BME280;8445;51.270;9.434;2023-04-26T07:48:08;99700.09;;;8.48;59.12
16664;BME280;8445;51.270;9.434;2023-04-26T07:50:34;99688.44;;;8.66;58.83
16664;BME280;8445;51.270;9.434;2023-04-26T07:52:59;99689.28;;;8.67;58.00
16664;BME280;8445;51.270;9.434;2023-04-26T07:55:25;99692.69;;;8.96;58.05
16664;BME280;8445;51.270;9.434;2023-04-26T07:57:50;99693.41;;;9.13;58.82
16664;BME280;8445;51.270;9.434;2023-04-26T08:00:16;99694.13;;;9.42;58.56
16664;BME280;8445;51.270;9.434;2023-04-26T08:02:43;99690.69;;;9.68;58.86
16664;BME280;8445;51.270;9.434;2023-04-26T08:05:11;99690.72;;;9.93;59.08
16664;BME280;8445;51.270;9.434;2023-04-26T08:07:38;99686.69;;;10.27;59.21
16664;BME280;8445;51.270;9.434;2023-04-26T08:10:03;99688.44;;;10.65;58.75
16664;BME280;8445;51.270;9.434;2023-04-26T08:12:30;99681.97;;;11.06;57.96
16664;BME280;8445;51.270;9.434;2023-04-26T08:14:58;99681.34;;;11.27;57.08
16664;BME280;8445;51.270;9.434;2023-04-26T08:17:24;99687.09;;;11.21;57.22
16664;BME280;8445;51.270;9.434;2023-04-26T08:19:49;99682.66;;;11.21;57.02
16664;BME280;8445;51.270;9.434;2023-04-26T08:22:15;99692.72;;;11.40;57.32
16664;BME280;8445;51.270;9.434;2023-04-26T08:24:40;99690.00;;;11.29;56.80
16664;BME280;8445;51.270;9.434;2023-04-26T08:27:05;99694.63;;;11.38;56.78
16664;BME280;8445;51.270;9.434;2023-04-26T08:29:31;99692.31;;;11.58;56.88
16664;BME280;8445;51.270;9.434;2023-04-26T08:31:56;99685.13;;;11.71;56.53
16664;BME280;8445;51.270;9.434;2023-04-26T08:34:22;99686.31;;;12.03;56.97
16664;BME280;8445;51.270;9.434;2023-04-26T08:36:47;99681.00;;;12.26;56.52
16664;BME280;8445;51.270;9.434;2023-04-26T08:39:13;99687.63;;;12.54;56.66
16664;BME280;8445;51.270;9.434;2023-04-26T08:41:42;99693.16;;;12.51;55.94
16664;BME280;8445;51.270;9.434;2023-04-26T08:44:11;99690.06;;;12.23;55.78
16664;BME280;8445;51.270;9.434;2023-04-26T08:47:02;99689.00;;;11.90;53.12
16664;BME280;8445;51.270;9.434;2023-04-26T08:49:38;99703.03;;;11.32;54.21
16664;BME280;8445;51.270;9.434;2023-04-26T08:52:08;99711.16;;;10.80;55.03
16664;BME280;8445;51.270;9.434;2023-04-26T08:54:39;99696.16;;;10.68;55.13
16664;BME280;8445;51.270;9.434;2023-04-26T08:57:06;99699.25;;;10.99;56.57
16664;BME280;8445;51.270;9.434;2023-04-26T08:59:35;99694.53;;;11.16;55.85
16664;BME280;8445;51.270;9.434;2023-04-26T09:02:05;99700.38;;;11.32;56.60
16664;BME280;8445;51.270;9.434;2023-04-26T09:04:31;99700.06;;;11.48;56.37
16664;BME280;8445;51.270;9.434;2023-04-26T09:07:02;99695.22;;;11.78;55.64
16664;BME280;8445;51.270;9.434;2023-04-26T09:09:34;99686.59;;;11.98;56.10
16664;BME280;8445;51.270;9.434;2023-04-26T09:12:06;99696.06;;;12.14;55.39
16664;BME280;8445;51.270;9.434;2023-04-26T09:14:32;99681.38;;;12.33;55.57
16664;BME280;8445;51.270;9.434;2023-04-26T09:16:58;99687.84;;;12.51;55.87
16664;BME280;8445;51.270;9.434;2023-04-26T09:19:36;99679.41;;;12.69;52.25
16664;BME280;8445;51.270;9.434;2023-04-26T09:22:02;99681.25;;;13.01;55.38
16664;BME280;8445;51.270;9.434;2023-04-26T09:24:45;99672.56;;;13.31;54.73
16664;BME280;8445;51.270;9.434;2023-04-26T09:27:12;99688.00;;;13.91;55.41
16664;BME280;8445;51.270;9.434;2023-04-26T09:30:01;99683.53;;;13.92;49.68
16664;BME280;8445;51.270;9.434;2023-04-26T09:32:57;99684.44;;;14.02;52.10
16664;BME280;8445;51.270;9.434;2023-04-26T09:40:24;99686.00;;;13.30;51.55
16664;BME280;8445;51.270;9.434;2023-04-26T09:43:20;99685.97;;;12.97;50.20
16664;BME280;8445;51.270;9.434;2023-04-26T09:45:53;99682.84;;;13.36;50.03
16664;BME280;8445;51.270;9.434;2023-04-26T09:50:56;99680.81;;;13.61;52.06
16664;BME280;8445;51.270;9.434;2023-04-26T09:53:41;99688.25;;;13.46;51.04
16664;BME280;8445;51.270;9.434;2023-04-26T09:56:18;99676.34;;;13.29;51.75
16664;BME280;8445;51.270;9.434;2023-04-26T10:01:17;99679.47;;;13.67;51.09
16664;BME280;8445;51.270;9.434;2023-04-26T10:03:45;99682.16;;;13.98;51.19
16664;BME280;8445;51.270;9.434;2023-04-26T10:06:14;99681.09;;;13.79;50.18
16664;BME280;8445;51.270;9.434;2023-04-26T10:08:40;99683.19;;;13.85;51.05
16664;BME280;8445;51.270;9.434;2023-04-26T10:11:05;99680.38;;;13.98;50.53
16664;BME280;8445;51.270;9.434;2023-04-26T10:13:37;99676.19;;;14.36;50.84
16664;BME280;8445;51.270;9.434;2023-04-26T10:16:04;99680.56;;;14.88;50.77
16664;BME280;8445;51.270;9.434;2023-04-26T10:18:31;99684.25;;;15.07;49.39
16664;BME280;8445;51.270;9.434;2023-04-26T10:20:59;99670.34;;;14.93;48.83
16664;BME280;8445;51.270;9.434;2023-04-26T10:23:26;99674.03;;;14.61;49.56
16664;BME280;8445;51.270;9.434;2023-04-26T10:25:53;99658.94;;;14.31;48.66
16664;BME280;8445;51.270;9.434;2023-04-26T10:31:11;99672.19;;;14.21;48.85
16664;BME280;8445;51.270;9.434;2023-04-26T10:33:38;99662.56;;;13.99;48.21
16664;BME280;8445;51.270;9.434;2023-04-26T10:36:10;99662.84;;;13.96;48.15
16664;BME280;8445;51.270;9.434;2023-04-26T10:38:52;99675.63;;;13.81;47.89
16664;BME280;8445;51.270;9.434;2023-04-26T10:41:35;99665.69;;;13.40;48.14
16664;BME280;8445;51.270;9.434;2023-04-26T10:44:39;99676.47;;;12.95;45.70
16664;BME280;8445;51.270;9.434;2023-04-26T10:47:10;99669.81;;;13.00;47.22
16664;BME280;8445;51.270;9.434;2023-04-26T10:49:45;99663.94;;;12.85;47.49
16664;BME280;8445;51.270;9.434;2023-04-26T10:52:16;99670.84;;;12.65;47.57
16664;BME280;8445;51.270;9.434;2023-04-26T10:54:52;99674.97;;;12.58;46.80
16664;BME280;8445;51.270;9.434;2023-04-26T10:57:18;99673.94;;;12.82;48.02
16664;BME280;8445;51.270;9.434;2023-04-26T11:03:04;99655.63;;;13.11;47.51
16664;BME280;8445;51.270;9.434;2023-04-26T11:08:18;99661.88;;;13.75;45.83
16664;BME280;8445;51.270;9.434;2023-04-26T11:13:46;99647.25;;;14.12;40.14
16664;BME280;8445;51.270;9.434;2023-04-26T11:16:13;99650.22;;;14.60;47.53
16664;BME280;8445;51.270;9.434;2023-04-26T11:18:41;99649.75;;;14.95;47.72
16664;BME280;8445;51.270;9.434;2023-04-26T11:21:08;99652.44;;;15.15;46.39
16664;BME280;8445;51.270;9.434;2023-04-26T11:23:34;99654.22;;;14.85;46.56
16664;BME280;8445;51.270;9.434;2023-04-26T11:26:04;99665.19;;;14.51;44.99
16664;BME280;8445;51.270;9.434;2023-04-26T11:28:31;99662.28;;;13.92;45.81
16664;BME280;8445;51.270;9.434;2023-04-26T11:30:57;99658.84;;;13.80;45.96
16664;BME280;8445;51.270;9.434;2023-04-26T11:33:23;99650.00;;;13.79;45.69
16664;BME280;8445;51.270;9.434;2023-04-26T11:35:50;99652.03;;;13.66;44.94
16664;BME280;8445;51.270;9.434;2023-04-26T11:38:16;99655.75;;;13.75;45.38
16664;BME280;8445;51.270;9.434;2023-04-26T11:40:43;99660.78;;;13.78;44.21
16664;BME280;8445;51.270;9.434;2023-04-26T11:43:15;99658.25;;;13.55;44.78
16664;BME280;8445;51.270;9.434;2023-04-26T11:45:41;99660.13;;;13.43;44.42
16664;BME280;8445;51.270;9.434;2023-04-26T11:48:09;99659.47;;;13.18;44.75
16664;BME280;8445;51.270;9.434;2023-04-26T11:50:37;99650.34;;;13.32;44.75
16664;BME280;8445;51.270;9.434;2023-04-26T11:53:07;99657.94;;;13.48;44.80
16664;BME280;8445;51.270;9.434;2023-04-26T11:55:34;99658.78;;;13.70;45.16
16664;BME280;8445;51.270;9.434;2023-04-26T11:58:22;99659.28;;;14.06;41.74
16664;BME280;8445;51.270;9.434;2023-04-26T12:01:00;99650.84;;;14.01;44.16
16664;BME280;8445;51.270;9.434;2023-04-26T12:03:33;99659.16;;;14.18;41.78
16664;BME280;8445;51.270;9.434;2023-04-26T12:06:03;99656.09;;;14.13;44.76
16664;BME280;8445;51.270;9.434;2023-04-26T12:08:29;99650.13;;;14.30;44.89
16664;BME280;8445;51.270;9.434;2023-04-26T12:11:00;99655.59;;;14.70;44.37
16664;BME280;8445;51.270;9.434;2023-04-26T12:13:29;99656.59;;;14.88;44.68
16664;BME280;8445;51.270;9.434;2023-04-26T12:15:55;99661.28;;;14.55;43.23
16664;BME280;8445;51.270;9.434;2023-04-26T12:18:21;99657.66;;;14.25;43.99
16664;BME280;8445;51.270;9.434;2023-04-26T12:20:47;99661.47;;;14.01;43.55
16664;BME280;8445;51.270;9.434;2023-04-26T12:23:14;99660.13;;;13.86;43.90
16664;BME280;8445;51.270;9.434;2023-04-26T12:25:54;99660.78;;;13.78;41.70
16664;BME280;8445;51.270;9.434;2023-04-26T12:28:20;99660.06;;;13.97;44.01
16664;BME280;8445;51.270;9.434;2023-04-26T12:30:50;99658.44;;;14.16;43.75
16664;BME280;8445;51.270;9.434;2023-04-26T12:33:15;99652.84;;;14.50;43.23
16664;BME280;8445;51.270;9.434;2023-04-26T12:35:44;99658.34;;;14.68;43.75
16664;BME280;8445;51.270;9.434;2023-04-26T12:38:10;99647.50;;;14.91;44.03
16664;BME280;8445;51.270;9.434;2023-04-26T12:40:37;99653.13;;;15.27;43.09
16664;BME280;8445;51.270;9.434;2023-04-26T12:43:02;99640.38;;;15.31;43.15
16664;BME280;8445;51.270;9.434;2023-04-26T12:45:28;99636.28;;;15.46;42.97
16664;BME280;8445;51.270;9.434;2023-04-26T12:47:53;99629.78;;;15.78;43.04
16664;BME280;8445;51.270;9.434;2023-04-26T12:50:19;99642.56;;;16.22;42.95
16664;BME280;8445;51.270;9.434;2023-04-26T12:52:45;99644.72;;;16.47;42.34
16664;BME280;8445;51.270;9.434;2023-04-26T12:55:14;99643.75;;;16.38;41.75
16664;BME280;8445;51.270;9.434;2023-04-26T12:57:42;99645.16;;;16.04;41.95
16664;BME280;8445;51.270;9.434;2023-04-26T13:00:12;99643.97;;;15.89;42.51
16664;BME280;8445;51.270;9.434;2023-04-26T13:02:39;99642.66;;;15.93;41.99
16664;BME280;8445;51.270;9.434;2023-04-26T13:05:05;99656.66;;;16.14;42.16
16664;BME280;8445;51.270;9.434;2023-04-26T13:07:36;99651.50;;;16.03;41.83
16664;BME280;8445;51.270;9.434;2023-04-26T13:10:04;99651.13;;;15.78;41.46
16664;BME280;8445;51.270;9.434;2023-04-26T13:12:36;99643.53;;;15.74;42.09
16664;BME280;8445;51.270;9.434;2023-04-26T13:15:06;99653.94;;;15.87;41.39
16664;BME280;8445;51.270;9.434;2023-04-26T13:17:32;99645.53;;;15.62;41.79
16664;BME280;8445;51.270;9.434;2023-04-26T13:19:57;99652.81;;;15.60;41.77
16664;BME280;8445;51.270;9.434;2023-04-26T13:22:23;99649.06;;;15.43;41.66
16664;BME280;8445;51.270;9.434;2023-04-26T13:24:48;99647.53;;;15.20;41.83
16664;BME280;8445;51.270;9.434;2023-04-26T13:27:14;99653.41;;;15.44;42.35
16664;BME280;8445;51.270;9.434;2023-04-26T13:29:40;99653.66;;;15.70;41.95
16664;BME280;8445;51.270;9.434;2023-04-26T13:32:06;99652.81;;;15.79;41.60
16664;BME280;8445;51.270;9.434;2023-04-26T13:34:32;99641.72;;;15.74;41.11
16664;BME280;8445;51.270;9.434;2023-04-26T13:36:58;99658.00;;;15.71;41.10
16664;BME280;8445;51.270;9.434;2023-04-26T13:39:26;99643.28;;;15.47;41.00
16664;BME280;8445;51.270;9.434;2023-04-26T13:41:52;99647.97;;;15.25;40.91